Time;durP1;ratioP1;P1;durP2;ratioP2;P2;SDS_P1;SDS_P2;PMS_P1;PMS_P2;Temp;Humidity;BMP_temperature;BMP_pressure;BME280_temperature;BME280_humidity;BME280_pressure;Samples;Min_cycle;Max_cycle;Signal;HPM_P1;HPM_P2
2021/12/01 00:01:34;;;;;;;6.75;0.70;;;;;;;-148.56;100.00;61375.16;5004842;28;20037;-30
2021/12/01 00:04:58;;;;;;;0.90;0.45;;;;;;;-148.56;100.00;61375.16;5005156;28;20069;-30
2021/12/01 00:08:22;;;;;;;2.10;0.50;;;;;;;-148.56;100.00;61375.16;5002539;28;20037;-30
2021/12/01 00:11:45;;;;;;;0.82;0.43;;;;;;;-148.56;100.00;61375.16;5003987;28;20681;-30
2021/12/01 00:15:09;;;;;;;2.90;0.47;;;;;;;-148.56;100.00;61375.16;5008081;28;20704;-30
2021/12/01 00:18:33;;;;;;;1.90;0.70;;;;;;;-148.56;100.00;61375.16;5005130;28;20692;-31
2021/12/01 00:21:57;;;;;;;1.05;0.32;;;;;;;-148.56;100.00;61375.16;5005010;28;20040;-29
2021/12/01 00:25:22;;;;;;;2.80;0.50;;;;;;;-148.56;100.00;61375.16;5008094;28;20037;-31
2021/12/01 00:28:46;;;;;;;1.70;0.70;;;;;;;-148.56;100.00;61375.16;5009322;28;20044;-29
2021/12/01 00:32:10;;;;;;;2.10;0.50;;;;;;;-148.56;100.00;61375.16;5008999;28;20040;-31
2021/12/01 00:35:34;;;;;;;1.38;0.50;;;;;;;-148.56;100.00;61375.16;4999889;28;20588;-30
2021/12/01 00:38:58;;;;;;;0.90;0.32;;;;;;;-148.56;100.00;61375.16;5010608;28;20584;-30
2021/12/01 00:42:22;;;;;;;0.65;0.30;;;;;;;-148.56;100.00;61375.16;5007838;28;20065;-30
2021/12/01 00:45:52;;;;;;;0.47;0.30;;;;;;;-148.56;100.00;61375.16;5011795;28;21522;-30
2021/12/01 00:49:16;;;;;;;1.05;0.43;;;;;;;-148.56;100.00;61375.16;5006097;28;20534;-31
2021/12/01 00:52:39;;;;;;;2.35;0.43;;;;;;;-148.56;100.00;61375.16;5004057;28;20036;-30
2021/12/01 00:56:04;;;;;;;0.65;0.30;;;;;;;-148.56;100.00;61375.16;5005439;28;20037;-30
2021/12/01 00:59:28;;;;;;;1.95;0.32;;;;;;;-148.56;100.00;61375.16;5005854;28;20092;-33
2021/12/01 01:02:52;;;;;;;1.52;0.32;;;;;;;-148.56;100.00;61375.16;5008433;28;20034;-29
2021/12/01 01:06:16;;;;;;;1.27;0.30;;;;;;;-148.56;100.00;61375.16;5009076;28;20037;-29
2021/12/01 01:09:43;;;;;;;1.65;0.40;;;;;;;-148.56;100.00;61375.16;5002520;28;20036;-28
2021/12/01 01:16:50;;;;;;;2.45;0.38;;;;;;;-148.56;100.00;61375.16;5010543;28;20670;-28
2021/12/01 01:20:14;;;;;;;1.48;0.30;;;;;;;-148.56;100.00;61375.16;5001653;28;20090;-27
2021/12/01 01:23:38;;;;;;;1.60;0.45;;;;;;;-148.56;100.00;61375.16;5005504;28;20091;-32
2021/12/01 01:27:03;;;;;;;0.65;0.30;;;;;;;-148.56;100.00;61375.16;5005315;28;20490;-27
2021/12/01 01:30:27;;;;;;;1.35;0.30;;;;;;;-148.56;100.00;61375.16;5010293;28;20113;-32
2021/12/01 01:33:51;;;;;;;1.20;0.25;;;;;;;-148.56;100.00;61375.16;5003358;28;20036;-30
2021/12/01 01:37:15;;;;;;;2.17;0.30;;;;;;;-148.56;100.00;61375.16;5004675;28;20371;-31
2021/12/01 01:40:38;;;;;;;0.43;0.22;;;;;;;-148.56;100.00;61375.16;5006748;28;20025;-30
2021/12/01 01:44:03;;;;;;;0.55;0.30;;;;;;;-148.56;100.00;61375.16;5006851;28;20560;-29
2021/12/01 01:47:34;;;;;;;4.13;0.30;;;;;;;-148.56;100.00;61375.16;5005316;28;20034;-29
2021/12/01 01:50:58;;;;;;;0.50;0.40;;;;;;;-148.56;100.00;61375.16;5004483;28;20036;-27
2021/12/01 01:54:22;;;;;;;0.95;0.30;;;;;;;-148.56;100.00;61375.16;5005175;28;20473;-30
2021/12/01 01:57:46;;;;;;;1.52;0.25;;;;;;;-148.56;100.00;61375.16;5005256;28;20141;-29
2021/12/01 02:01:13;;;;;;;1.77;0.40;;;;;;;-148.56;100.00;61375.16;5004038;28;20034;-28
2021/12/01 02:04:38;;;;;;;1.17;0.20;;;;;;;-148.56;100.00;61375.16;5008108;28;20021;-29
2021/12/01 02:08:02;;;;;;;2.40;0.20;;;;;;;-148.56;100.00;61375.16;5004857;28;20032;-27
2021/12/01 02:11:27;;;;;;;1.52;0.20;;;;;;;-148.56;100.00;61375.16;5005321;28;20604;-30
2021/12/01 02:14:51;;;;;;;3.28;0.38;;;;;;;-148.56;100.00;61375.16;5015360;28;20030;-29
2021/12/01 02:18:15;;;;;;;0.57;0.30;;;;;;;-148.56;100.00;61375.16;5005940;28;20030;-30
2021/12/01 02:21:39;;;;;;;0.32;0.20;;;;;;;-148.56;100.00;61375.16;5005699;28;20439;-29
2021/12/01 02:25:07;;;;;;;0.75;0.30;;;;;;;-148.56;100.00;61375.16;5006011;28;20063;-27
2021/12/01 02:28:31;;;;;;;0.77;0.30;;;;;;;-148.56;100.00;61375.16;5004860;28;20037;-33
2021/12/01 02:31:55;;;;;;;0.93;0.30;;;;;;;-148.56;100.00;61375.16;5003224;28;20064;-29
2021/12/01 02:35:21;;;;;;;2.15;0.50;;;;;;;-148.56;100.00;61375.16;4998344;28;20037;-28
2021/12/01 02:38:45;;;;;;;0.35;0.20;;;;;;;-148.56;100.00;61375.16;5005260;28;20063;-29
2021/12/01 02:42:09;;;;;;;1.02;0.20;;;;;;;-148.56;100.00;61375.16;5003369;28;20029;-31
2021/12/01 02:45:33;;;;;;;0.80;0.30;;;;;;;-148.56;100.00;61375.16;5007953;28;20038;-30
2021/12/01 02:48:57;;;;;;;0.43;0.30;;;;;;;-148.56;100.00;61375.16;5000785;28;20413;-30
2021/12/01 02:52:22;;;;;;;0.45;0.20;;;;;;;-148.56;100.00;61375.16;5007860;28;20036;-29
2021/12/01 02:55:53;;;;;;;1.17;0.30;;;;;;;-148.56;100.00;61375.16;4995513;28;20057;-29
2021/12/01 02:59:17;;;;;;;0.82;0.30;;;;;;;-148.56;100.00;61375.16;4996533;28;20028;-28
2021/12/01 03:02:41;;;;;;;0.68;0.30;;;;;;;-148.56;100.00;61375.16;5001077;28;20044;-29
2021/12/01 03:06:05;;;;;;;2.42;0.30;;;;;;;-148.56;100.00;61375.16;5006050;28;20060;-29
2021/12/01 03:09:29;;;;;;;2.45;0.22;;;;;;;-148.56;100.00;61375.16;5006132;28;20037;-28
2021/12/01 03:12:53;;;;;;;0.30;0.13;;;;;;;-148.56;100.00;61375.16;5004335;28;20021;-28
2021/12/01 03:16:17;;;;;;;0.32;0.20;;;;;;;-148.56;100.00;61375.16;5005344;28;20025;-30
2021/12/01 03:19:41;;;;;;;0.20;0.17;;;;;;;-148.56;100.00;61375.16;5005347;28;20025;-31
2021/12/01 03:23:05;;;;;;;0.28;0.20;;;;;;;-148.56;100.00;61375.16;5003291;28;20022;-30
2021/12/01 03:26:29;;;;;;;0.10;0.10;;;;;;;-148.56;100.00;61375.16;5013712;28;20544;-30
2021/12/01 03:29:53;;;;;;;0.40;0.15;;;;;;;-148.56;100.00;61375.16;5004822;28;20140;-29
2021/12/01 03:33:19;;;;;;;0.38;0.22;;;;;;;-148.56;100.00;61375.16;4987688;28;20021;-31
2021/12/01 03:36:43;;;;;;;0.20;0.20;;;;;;;-148.56;100.00;61375.16;5003239;28;20026;-29
2021/12/01 03:40:07;;;;;;;0.63;0.20;;;;;;;-148.56;100.00;61375.16;5004134;28;20033;-31
2021/12/01 03:43:31;;;;;;;0.93;0.30;;;;;;;-148.56;100.00;61375.16;5002479;28;20465;-30
2021/12/01 03:46:55;;;;;;;0.55;0.30;;;;;;;-148.56;100.00;61375.16;5004974;28;20037;-29
2021/12/01 03:50:19;;;;;;;0.82;0.20;;;;;;;-148.56;100.00;61375.16;5003747;28;20061;-30
2021/12/01 03:53:43;;;;;;;0.52;0.30;;;;;;;-148.56;100.00;61375.16;5007058;28;20029;-26
2021/12/01 03:57:07;;;;;;;0.30;0.13;;;;;;;-148.56;100.00;61375.16;5007166;28;20061;-29
2021/12/01 04:00:30;;;;;;;0.10;0.10;;;;;;;-148.56;100.00;61375.16;5009567;28;20164;-29
2021/12/01 04:03:54;;;;;;;0.85;0.30;;;;;;;-148.56;100.00;61375.16;5006815;28;20071;-28
2021/12/01 04:07:19;;;;;;;0.40;0.20;;;;;;;-148.56;100.00;61375.16;5009072;28;20147;-30
2021/12/01 04:10:43;;;;;;;0.10;0.10;;;;;;;-148.56;100.00;61375.16;5008911;28;20056;-30
2021/12/01 04:14:08;;;;;;;0.90;0.40;;;;;;;-148.56;100.00;61375.16;5008824;28;20099;-29
2021/12/01 04:17:32;;;;;;;0.30;0.15;;;;;;;-148.56;100.00;61375.16;5010716;28;20036;-31
2021/12/01 04:20:56;;;;;;;0.10;0.10;;;;;;;-148.56;100.00;61375.16;5011084;28;20029;-29
2021/12/01 04:24:20;;;;;;;1.13;0.20;;;;;;;-148.56;100.00;61375.16;5010259;28;20040;-29
2021/12/01 04:27:44;;;;;;;0.17;0.10;;;;;;;-148.56;100.00;61375.16;5008300;28;20043;-30
2021/12/01 04:31:08;;;;;;;0.10;0.10;;;;;;;-148.56;100.00;61375.16;5009665;28;20599;-31
2021/12/01 04:34:32;;;;;;;0.45;0.10;;;;;;;-148.56;100.00;61375.16;5008404;28;20100;-30
2021/12/01 04:37:56;;;;;;;0.70;0.28;;;;;;;-148.56;100.00;61375.16;5008774;28;20036;-29
2021/12/01 04:41:21;;;;;;;0.30;0.20;;;;;;;-148.56;100.00;61375.16;5012127;28;20116;-29
2021/12/01 04:44:45;;;;;;;0.88;0.30;;;;;;;-148.56;100.00;61375.16;5008092;28;20029;-28
2021/12/01 04:48:09;;;;;;;0.57;0.30;;;;;;;-148.56;100.00;61375.16;5006002;28;20219;-31
2021/12/01 04:51:33;;;;;;;0.52;0.20;;;;;;;-148.56;100.00;61375.16;5009836;28;20829;-31
2021/12/01 04:54:57;;;;;;;0.10;0.10;;;;;;;-148.56;100.00;61375.16;5008143;28;20037;-30
2021/12/01 04:58:21;;;;;;;0.68;0.10;;;;;;;-148.56;100.00;61375.16;5006732;28;20435;-29
2021/12/01 05:01:45;;;;;;;0.80;0.30;;;;;;;-148.56;100.00;61375.16;5009248;28;20025;-28
2021/12/01 05:05:09;;;;;;;0.30;0.20;;;;;;;-148.56;100.00;61375.16;5007121;28;20021;-30
2021/12/01 05:08:33;;;;;;;1.65;0.40;;;;;;;-148.56;100.00;61375.16;5009342;28;20033;-31
2021/12/01 05:11:57;;;;;;;0.45;0.10;;;;;;;-148.56;100.00;61375.16;5009848;28;20036;-29
2021/12/01 05:15:21;;;;;;;0.28;0.10;;;;;;;-148.56;100.00;61375.16;5005442;28;20048;-30
2021/12/01 05:18:44;;;;;;;0.80;0.30;;;;;;;-148.56;100.00;61375.16;5008798;28;20195;-29
2021/12/01 05:22:09;;;;;;;0.50;0.20;;;;;;;-148.56;100.00;61375.16;5007532;28;20021;-29
2021/12/01 05:25:33;;;;;;;2.38;0.30;;;;;;;-148.56;100.00;61375.16;5007432;28;20414;-29
2021/12/01 05:28:57;;;;;;;1.40;0.28;;;;;;;-148.56;100.00;61375.16;5002278;28;20040;-29
2021/12/01 05:32:21;;;;;;;0.10;0.10;;;;;;;-148.56;100.00;61375.16;5008488;28;20038;-29
2021/12/01 05:35:46;;;;;;;0.15;0.15;;;;;;;-148.56;100.00;61375.16;5003622;28;20061;-28
2021/12/01 05:39:10;;;;;;;0.38;0.20;;;;;;;-148.56;100.00;61375.16;5009657;28;20569;-30
2021/12/01 05:42:34;;;;;;;0.55;0.13;;;;;;;-148.56;100.00;61375.16;5002863;28;20077;-32
2021/12/01 05:45:57;;;;;;;0.10;0.10;;;;;;;-148.56;100.00;61375.16;5003741;28;20044;-29
2021/12/01 05:49:21;;;;;;;0.10;0.10;;;;;;;-148.56;100.00;61375.16;5010748;28;20033;-28
2021/12/01 05:52:48;;;;;;;0.57;0.10;;;;;;;-148.56;100.00;61375.16;5008107;28;20026;-30
2021/12/01 05:56:12;;;;;;;0.73;0.28;;;;;;;-148.56;100.00;61375.16;5002272;28;20029;-31
2021/12/01 05:59:36;;;;;;;0.50;0.20;;;;;;;-148.56;100.00;61375.16;4997145;28;20029;-28
2021/12/01 06:03:00;;;;;;;0.10;0.10;;;;;;;-148.56;100.00;61375.16;5013625;28;20063;-30
2021/12/01 06:06:23;;;;;;;1.65;0.13;;;;;;;-148.56;100.00;61375.16;4998703;28;20048;-27
2021/12/01 06:09:47;;;;;;;3.95;0.20;;;;;;;-148.56;100.00;61375.16;5004068;28;20091;-30
2021/12/01 06:13:14;;;;;;;0.10;0.10;;;;;;;-148.56;100.00;61375.16;5007477;28;20529;-30
2021/12/01 06:16:38;;;;;;;0.52;0.20;;;;;;;-148.56;100.00;61375.16;5003148;28;20038;-29
2021/12/01 06:20:02;;;;;;;0.30;0.10;;;;;;;-148.56;100.00;61375.16;5005302;28;20028;-29
2021/12/01 06:23:26;;;;;;;0.25;0.20;;;;;;;-148.56;100.00;61375.16;5006685;28;20036;-30
2021/12/01 06:26:50;;;;;;;1.35;0.10;;;;;;;-148.56;100.00;61375.16;5004280;28;20063;-30
2021/12/01 06:30:14;;;;;;;0.28;0.10;;;;;;;-148.56;100.00;61375.16;5008158;28;20628;-30
2021/12/01 06:33:38;;;;;;;0.40;0.30;;;;;;;-148.56;100.00;61375.16;5005926;28;20462;-30
2021/12/01 06:37:02;;;;;;;0.40;0.20;;;;;;;-148.56;100.00;61375.16;5008250;28;20018;-28
2021/12/01 06:40:26;;;;;;;3.28;0.47;;;;;;;-148.56;100.00;61375.16;5002873;28;20044;-31
2021/12/01 06:43:50;;;;;;;3.33;0.63;;;;;;;-148.56;100.00;61375.16;5005455;28;20493;-29
2021/12/01 06:47:16;;;;;;;1.38;0.30;;;;;;;-148.56;100.00;61375.16;5010966;28;20037;-30
2021/12/01 06:50:40;;;;;;;1.10;0.20;;;;;;;-148.56;100.00;61375.16;5011147;28;20028;-31
2021/12/01 06:54:04;;;;;;;1.30;0.20;;;;;;;-148.56;100.00;61375.16;5005173;28;20147;-27
2021/12/01 06:57:28;;;;;;;0.90;0.68;;;;;;;-148.56;100.00;61375.16;5004315;28;20056;-30
2021/12/01 07:00:52;;;;;;;0.47;0.10;;;;;;;-148.56;100.00;61375.16;4994684;28;20033;-30
2021/12/01 07:04:16;;;;;;;0.60;0.20;;;;;;;-148.56;100.00;61375.16;5004817;28;20398;-29
2021/12/01 07:07:39;;;;;;;0.50;0.20;;;;;;;-148.56;100.00;61375.16;5000811;28;20102;-28
2021/12/01 07:11:04;;;;;;;0.75;0.28;;;;;;;-148.56;100.00;61375.16;5006729;28;20133;-29
2021/12/01 07:14:28;;;;;;;1.50;0.30;;;;;;;-148.56;100.00;61375.16;5007073;28;20034;-28
2021/12/01 07:17:52;;;;;;;0.73;0.30;;;;;;;-148.56;100.00;61375.16;5006577;28;20052;-29
2021/12/01 07:21:16;;;;;;;0.45;0.30;;;;;;;-148.56;100.00;61375.16;5014604;28;20699;-29
2021/12/01 07:24:40;;;;;;;0.35;0.25;;;;;;;-148.56;100.00;61375.16;5003190;28;20072;-26
2021/12/01 07:28:04;;;;;;;0.40;0.20;;;;;;;-148.56;100.00;61375.16;5002283;28;20033;-27
2021/12/01 07:31:28;;;;;;;0.98;0.17;;;;;;;-148.56;100.00;61375.16;4998218;28;20100;-30
2021/12/01 07:34:52;;;;;;;1.17;0.30;;;;;;;-148.56;100.00;61375.16;4997174;28;20021;-29
2021/12/01 07:38:16;;;;;;;7.80;0.68;;;;;;;-148.56;100.00;61375.16;4994945;28;20033;-26
2021/12/01 07:41:39;;;;;;;2.42;0.80;;;;;;;-148.56;100.00;61375.16;5000451;28;20053;-28
2021/12/01 07:45:04;;;;;;;2.17;0.68;;;;;;;-148.56;100.00;61375.16;5003111;28;20140;-32
2021/12/01 07:48:28;;;;;;;3.58;1.60;;;;;;;-148.56;100.00;61375.16;5001562;28;20030;-29
2021/12/01 07:51:52;;;;;;;4.38;1.10;;;;;;;-148.56;100.00;61375.16;4990061;28;20056;-26
2021/12/01 07:55:18;;;;;;;5.90;1.13;;;;;;;-148.56;100.00;61375.16;5001106;28;20068;-30
2021/12/01 07:58:41;;;;;;;7.13;1.33;;;;;;;-148.56;100.00;61375.16;5001294;28;20633;-29
2021/12/01 08:02:05;;;;;;;2.70;1.10;;;;;;;-148.56;100.00;61375.16;5003026;28;20175;-32
2021/12/01 08:05:29;;;;;;;6.15;1.52;;;;;;;-148.56;100.00;61375.16;5000685;28;20557;-30
2021/12/01 08:08:53;;;;;;;3.83;1.02;;;;;;;-148.56;100.00;61375.16;5000451;28;20100;-30
2021/12/01 08:12:17;;;;;;;7.15;1.40;;;;;;;-148.56;100.00;61375.16;5001145;28;20029;-30
2021/12/01 08:15:41;;;;;;;4.38;1.48;;;;;;;-148.56;100.00;61375.16;4998763;28;20029;-27
2021/12/01 08:19:05;;;;;;;2.63;1.00;;;;;;;-148.56;100.00;61375.16;5001037;28;20038;-31
2021/12/01 08:22:29;;;;;;;3.53;1.10;;;;;;;-148.56;100.00;61375.16;5000454;28;20029;-30
2021/12/01 08:25:54;;;;;;;2.00;0.90;;;;;;;-148.56;100.00;61375.16;5001931;28;20041;-30
2021/12/01 08:29:18;;;;;;;3.67;1.10;;;;;;;-148.56;100.00;61375.16;5003453;28;20037;-30
2021/12/01 08:32:45;;;;;;;4.47;1.05;;;;;;;-148.56;100.00;61375.16;5000026;28;20041;-29
2021/12/01 08:36:10;;;;;;;3.28;1.02;;;;;;;-148.56;100.00;61375.16;4999293;28;20597;-30
2021/12/01 08:39:34;;;;;;;2.88;1.02;;;;;;;-148.56;100.00;61375.16;5003192;28;20116;-28
2021/12/01 08:42:58;;;;;;;1.70;0.90;;;;;;;-148.56;100.00;61375.16;5003953;28;20441;-29
2021/12/01 08:46:22;;;;;;;2.33;0.80;;;;;;;-148.56;100.00;61375.16;5003334;28;20868;-29
2021/12/01 08:49:46;;;;;;;2.83;1.20;;;;;;;-148.56;100.00;61375.16;5002708;28;20030;-30
2021/12/01 08:53:10;;;;;;;4.20;1.25;;;;;;;-148.56;100.00;61375.16;5002082;28;20121;-27
2021/12/01 08:56:34;;;;;;;5.60;0.95;;;;;;;-148.56;100.00;61375.16;5001952;28;20034;-29
2021/12/01 08:59:58;;;;;;;6.05;1.40;;;;;;;-148.56;100.00;61375.16;5002500;28;20041;-28
2021/12/01 09:03:22;;;;;;;2.33;0.90;;;;;;;-148.56;100.00;61375.16;5003041;28;20385;-29
2021/12/01 09:06:46;;;;;;;4.10;1.08;;;;;;;-148.56;100.00;61375.16;5003147;28;20058;-29
2021/12/01 09:10:10;;;;;;;4.10;1.30;;;;;;;-148.56;100.00;61375.16;5017872;28;20042;-31
2021/12/01 09:13:35;;;;;;;1.50;0.60;;;;;;;-148.56;100.00;61375.16;5001827;28;20108;-29
2021/12/01 09:16:59;;;;;;;2.90;0.68;;;;;;;-148.56;100.00;61375.16;5006957;28;20021;-29
2021/12/01 09:20:23;;;;;;;3.15;0.40;;;;;;;-148.56;100.00;61375.16;5014179;28;20044;-29
2021/12/01 09:23:47;;;;;;;1.10;0.50;;;;;;;-148.56;100.00;61375.16;5019762;28;20665;-29
2021/12/01 09:27:11;;;;;;;5.95;0.60;;;;;;;-148.56;100.00;61375.16;5023776;28;20592;-30
2021/12/01 09:30:35;;;;;;;2.03;0.60;;;;;;;-148.56;100.00;61375.16;5022796;28;20042;-31
2021/12/01 09:33:59;;;;;;;1.48;0.40;;;;;;;-148.56;100.00;61375.16;5023765;28;20658;-29
2021/12/01 09:37:23;;;;;;;1.40;0.47;;;;;;;-148.56;100.00;61375.16;5025505;28;20032;-31
2021/12/01 09:40:49;;;;;;;5.22;0.40;;;;;;;-148.56;100.00;61375.16;5021318;28;20370;-29
2021/12/01 09:44:13;;;;;;;1.50;0.47;;;;;;;-148.56;100.00;61375.16;5022251;28;20611;-29
2021/12/01 09:47:37;;;;;;;4.50;0.80;;;;;;;-148.56;100.00;61375.16;5021188;28;20436;-31
2021/12/01 09:51:05;;;;;;;3.25;0.60;;;;;;;-148.56;100.00;61375.16;5039132;28;20169;-30
2021/12/01 09:54:29;;;;;;;2.53;0.47;;;;;;;-148.56;100.00;61375.16;5022366;28;20036;-29
2021/12/01 09:57:56;;;;;;;0.57;0.40;;;;;;;-148.56;100.00;61375.16;5026195;28;20583;-30
2021/12/01 10:01:21;;;;;;;2.70;0.57;;;;;;;-148.56;100.00;61375.16;5025510;28;20489;-29
2021/12/01 10:04:45;;;;;;;0.75;0.40;;;;;;;-148.56;100.00;61375.16;5025057;28;20155;-30
2021/12/01 10:08:19;;;;;;;1.80;0.47;;;;;;;-148.56;100.00;61375.16;5023539;28;20062;-30
2021/12/01 10:11:43;;;;;;;3.25;0.55;;;;;;;-148.56;100.00;61375.16;5028023;28;20021;-31
2021/12/01 10:15:29;;;;;;;4.00;0.60;;;;;;;-148.56;100.00;61375.16;5023639;28;20025;-28
2021/12/01 10:19:07;;;;;;;0.88;0.38;;;;;;;-148.56;100.00;61375.16;5020402;28;20067;-33
2021/12/01 10:22:32;;;;;;;1.80;0.75;;;;;;;-148.56;100.00;61375.16;5019516;28;20702;-30
2021/12/01 10:25:56;;;;;;;14.68;2.08;;;;;;;-148.56;100.00;61375.16;5034988;28;20029;-31
2021/12/01 10:29:40;;;;;;;18.60;3.45;;;;;;;-148.56;100.00;61375.16;5039255;28;20041;-30
2021/12/01 10:33:14;;;;;;;32.88;3.42;;;;;;;-148.56;100.00;61375.16;5023538;28;20033;-30
2021/12/01 10:36:38;;;;;;;20.50;3.47;;;;;;;-148.56;100.00;61375.16;5027978;28;20059;-28
2021/12/01 10:40:12;;;;;;;12.48;2.75;;;;;;;-148.56;100.00;61375.16;5036977;28;20025;-31
2021/12/01 10:43:55;;;;;;;25.08;3.65;;;;;;;-148.56;100.00;61375.16;5028039;28;20120;-27
2021/12/01 10:47:18;;;;;;;15.55;3.15;;;;;;;-148.56;100.00;61375.16;5027808;28;20028;-31
2021/12/01 10:50:42;;;;;;;9.13;2.97;;;;;;;-148.56;100.00;61375.16;5024223;28;20079;-27
2021/12/01 10:54:14;;;;;;;15.55;3.20;;;;;;;-148.56;100.00;61375.16;5043612;28;20029;-29
2021/12/01 10:57:42;;;;;;;15.43;3.17;;;;;;;-148.56;100.00;61375.16;5029812;28;20048;-30
2021/12/01 11:01:19;;;;;;;19.75;3.63;;;;;;;-148.56;100.00;61375.16;5025149;28;20510;-30
2021/12/01 11:04:44;;;;;;;15.27;3.15;;;;;;;-148.56;100.00;61375.16;5040677;28;20021;-31
2021/12/01 11:08:27;;;;;;;11.23;3.33;;;;;;;-148.56;100.00;61375.16;5026333;28;20112;-30
2021/12/01 11:11:52;;;;;;;;;;;;;;;-148.56;100.00;61375.16;5030295;28;20028;-29
2021/12/01 11:15:17;;;;;;;10.68;2.95;;;;;;;-148.56;100.00;61375.16;5025151;28;19917;-31
2021/12/01 11:18:41;;;;;;;11.52;3.00;;;;;;;-148.56;100.00;61375.16;5025611;28;20100;-30
2021/12/01 11:22:27;;;;;;;8.98;2.70;;;;;;;-148.56;100.00;61375.16;5027614;28;20526;-30
2021/12/01 11:26:12;;;;;;;9.38;2.63;;;;;;;-148.56;100.00;61375.16;5042708;28;20797;-30
2021/12/01 11:29:40;;;;;;;9.93;2.20;;;;;;;-148.56;100.00;61375.16;5027729;28;20082;-30
2021/12/01 11:33:04;;;;;;;11.13;2.50;;;;;;;-148.56;100.00;61375.16;5026808;28;20032;-30
2021/12/01 11:36:29;;;;;;;11.85;2.85;;;;;;;-148.56;100.00;61375.16;5035623;28;20075;-30
2021/12/01 11:39:55;;;;;;;9.57;2.40;;;;;;;-148.56;100.00;61375.16;5025888;28;20536;-29
2021/12/01 11:43:21;;;;;;;7.20;2.45;;;;;;;-148.56;100.00;61375.16;5015545;28;20393;-32
2021/12/01 11:46:48;;;;;;;10.05;2.30;;;;;;;-148.56;100.00;61375.16;5026348;28;20114;-29
2021/12/01 11:50:32;;;;;;;9.98;2.42;;;;;;;-148.56;100.00;61375.16;5018210;28;20041;-30
2021/12/01 11:54:13;;;;;;;8.25;2.38;;;;;;;-148.56;100.00;61375.16;5021127;28;20041;-27
2021/12/01 11:57:41;;;;;;;6.45;2.00;;;;;;;-148.56;100.00;61375.16;5021473;28;20028;-28
2021/12/01 12:01:06;;;;;;;6.00;1.98;;;;;;;-148.56;100.00;61375.16;5021143;28;20033;-31
2021/12/01 12:04:30;;;;;;;6.50;1.95;;;;;;;-148.56;100.00;61375.16;5019814;28;20024;-28
2021/12/01 12:07:56;;;;;;;5.93;2.00;;;;;;;-148.56;100.00;61375.16;5020271;28;20029;-28
2021/12/01 12:11:46;;;;;;;4.78;1.60;;;;;;;-148.56;100.00;61375.16;5021452;28;20041;-30
2021/12/01 12:15:31;;;;;;;3.70;1.63;;;;;;;-148.56;100.00;61375.16;5023225;28;20066;-29
2021/12/01 12:18:56;;;;;;;7.93;1.80;;;;;;;-148.56;100.00;61375.16;5025502;28;20035;-27
2021/12/01 12:22:34;;;;;;;7.30;1.60;;;;;;;-148.56;100.00;61375.16;5026463;28;20532;-31
2021/12/01 12:25:58;;;;;;;7.78;1.73;;;;;;;-148.56;100.00;61375.16;5028689;28;20036;-29
2021/12/01 12:29:26;;;;;;;5.28;1.30;;;;;;;-148.56;100.00;61375.16;5029413;28;20075;-30
2021/12/01 12:32:52;;;;;;;8.68;1.60;;;;;;;-148.56;100.00;61375.16;5025231;28;20036;-30
2021/12/01 12:36:16;;;;;;;6.10;1.90;;;;;;;-148.56;100.00;61375.16;5034571;28;20036;-32
2021/12/01 12:39:59;;;;;;;9.25;1.70;;;;;;;-148.56;100.00;61375.16;5044627;28;20182;-27
2021/12/01 12:43:23;;;;;;;6.78;1.83;;;;;;;-148.56;100.00;61375.16;5029728;28;20122;-28
2021/12/01 12:47:03;;;;;;;6.40;1.80;;;;;;;-148.56;100.00;61375.16;5036141;28;20032;-29
2021/12/01 12:51:09;;;;;;;4.15;1.50;;;;;;;-148.56;100.00;61375.16;5031735;28;20027;-29
2021/12/01 12:54:36;;;;;;;6.50;1.52;;;;;;;-148.56;100.00;61375.16;5023481;28;20061;-30
2021/12/01 12:58:00;;;;;;;5.97;1.35;;;;;;;-148.56;100.00;61375.16;5031576;28;20021;-30
2021/12/01 13:01:34;;;;;;;8.38;1.70;;;;;;;-148.56;100.00;61375.16;5039238;28;20551;-30
2021/12/01 13:05:05;;;;;;;5.20;1.63;;;;;;;-148.56;100.00;61375.16;5038996;28;20029;-29
2021/12/01 13:08:40;;;;;;;4.03;1.27;;;;;;;-148.56;100.00;61375.16;5037923;28;20512;-31
2021/12/01 13:12:07;;;;;;;6.28;1.35;;;;;;;-148.56;100.00;61375.16;5044893;28;20493;-29
2021/12/01 13:15:46;;;;;;;3.35;1.30;;;;;;;-148.56;100.00;61375.16;5031620;28;20037;-31
2021/12/01 13:19:11;;;;;;;4.88;1.38;;;;;;;-148.56;100.00;61375.16;5037934;28;20040;-30
2021/12/01 13:22:35;;;;;;;5.85;1.27;;;;;;;-148.56;100.00;61375.16;5029593;28;20658;-30
2021/12/01 13:26:05;;;;;;;4.18;1.50;;;;;;;-148.56;100.00;61375.16;5029993;28;20445;-33
2021/12/01 13:29:31;;;;;;;3.42;1.27;;;;;;;-148.56;100.00;61375.16;5028928;28;20159;-31
2021/12/01 13:33:13;;;;;;;3.65;1.17;;;;;;;-148.56;100.00;61375.16;5029098;28;20037;-29
2021/12/01 13:36:38;;;;;;;2.58;1.20;;;;;;;-148.56;100.00;61375.16;5031991;28;20212;-30
2021/12/01 13:40:09;;;;;;;3.00;1.27;;;;;;;-148.56;100.00;61375.16;5028442;28;20017;-30
2021/12/01 13:43:33;;;;;;;3.72;1.25;;;;;;;-148.56;100.00;61375.16;5030738;28;20025;-30
2021/12/01 13:46:58;;;;;;;3.33;1.33;;;;;;;-148.56;100.00;61375.16;5025518;28;20037;-28
2021/12/01 13:50:33;;;;;;;2.50;1.30;;;;;;;-148.56;100.00;61375.16;5025510;28;20513;-30
2021/12/01 13:53:56;;;;;;;5.53;1.40;;;;;;;-148.56;100.00;61375.16;5027905;28;20067;-28
2021/12/01 13:57:20;;;;;;;3.63;1.23;;;;;;;-148.56;100.00;61375.16;5029512;28;20076;-29
2021/12/01 14:00:52;;;;;;;3.00;1.00;;;;;;;-148.56;100.00;61375.16;5028773;28;20548;-30
2021/12/01 14:04:16;;;;;;;3.78;1.10;;;;;;;-148.56;100.00;61375.16;5020439;28;20501;-29
2021/12/01 14:07:46;;;;;;;3.33;1.10;;;;;;;-148.56;100.00;61375.16;5020740;28;20846;-29
2021/12/01 14:11:24;;;;;;;2.15;0.80;;;;;;;-148.56;100.00;61375.16;5025771;28;20025;-31
2021/12/01 14:14:51;;;;;;;4.68;0.70;;;;;;;-148.56;100.00;61375.16;5023736;28;20087;-31
2021/12/01 14:18:16;;;;;;;4.28;0.95;;;;;;;-148.56;100.00;61375.16;5038403;28;20063;-32
2021/12/01 14:21:40;;;;;;;6.07;2.67;;;;;;;-148.56;100.00;61375.16;5019814;28;20064;-30
2021/12/01 14:25:08;;;;;;;10.20;4.60;;;;;;;-148.56;100.00;61375.16;5027827;28;20288;-28
2021/12/01 14:28:32;;;;;;;12.70;6.38;;;;;;;-148.56;100.00;61375.16;5041558;28;20520;-29
2021/12/01 14:31:57;;;;;;;12.52;6.60;;;;;;;-148.56;100.00;61375.16;5031724;28;20769;-28
2021/12/01 14:35:21;;;;;;;12.98;6.72;;;;;;;-148.56;100.00;61375.16;5028832;28;20040;-32
2021/12/01 14:38:50;;;;;;;12.32;5.65;;;;;;;-148.56;100.00;61375.16;5025054;28;20609;-30
2021/12/01 14:42:22;;;;;;;11.60;5.40;;;;;;;-148.56;100.00;61375.16;5027004;28;20538;-30
2021/12/01 14:45:46;;;;;;;11.18;5.30;;;;;;;-148.56;100.00;61375.16;5018537;28;20391;-28
2021/12/01 14:49:11;;;;;;;8.65;4.20;;;;;;;-148.56;100.00;61375.16;5020749;28;20041;-30
2021/12/01 14:52:37;;;;;;;8.93;4.57;;;;;;;-148.56;100.00;61375.16;5023309;28;20059;-31
2021/12/01 14:56:04;;;;;;;10.35;4.22;;;;;;;-148.56;100.00;61375.16;5022382;28;20156;-30
2021/12/01 14:59:29;;;;;;;8.00;3.67;;;;;;;-148.56;100.00;61375.16;5020594;28;21772;-30
2021/12/01 15:03:14;;;;;;;5.47;2.95;;;;;;;-148.56;100.00;61375.16;5022697;28;20032;-29
2021/12/01 15:06:54;;;;;;;7.30;3.38;;;;;;;-148.56;100.00;61375.16;5022601;28;20029;-32
2021/12/01 15:10:40;;;;;;;3.03;1.85;;;;;;;-148.56;100.00;61375.16;5021872;28;20041;-28
2021/12/01 15:14:27;;;;;;;6.30;2.35;;;;;;;-148.56;100.00;61375.16;5019815;28;20036;-28
2021/12/01 15:17:57;;;;;;;6.32;2.75;;;;;;;-148.56;100.00;61375.16;5021479;28;20033;-33
2021/12/01 15:21:22;;;;;;;7.32;2.80;;;;;;;-148.56;100.00;61375.16;5022690;28;20493;-29
2021/12/01 15:24:47;;;;;;;5.93;2.65;;;;;;;-148.56;100.00;61375.16;5021846;28;20052;-30
2021/12/01 15:28:11;;;;;;;3.95;2.28;;;;;;;-148.56;100.00;61375.16;5021252;28;20116;-30
2021/12/01 15:31:36;;;;;;;4.82;2.40;;;;;;;-148.56;100.00;61375.16;5040742;28;20533;-28
2021/12/01 15:35:01;;;;;;;8.45;2.40;;;;;;;-148.56;100.00;61375.16;5020222;28;20116;-31
2021/12/01 15:38:25;;;;;;;6.20;2.53;;;;;;;-148.56;100.00;61375.16;5034801;28;20024;-29
2021/12/01 15:41:49;;;;;;;7.65;2.30;;;;;;;-148.56;100.00;61375.16;5021683;28;20554;-30